KBWG 202223Z AUTO 02009G22KT 1SM +TSRA BR BKN026 BKN075 OVC110 23/21 A3008 RMK AO2 PK WND 35052/2154 LTG DSNT E AND SW RAB2156 P0093 T02280206